Time;durP1;ratioP1;P1;durP2;ratioP2;P2;SDS_P1;SDS_P2;PMS_P1;PMS_P2;Temp;Humidity;BMP_temperature;BMP_pressure;BME280_temperature;BME280_humidity;BME280_pressure;Samples;Min_cycle;Max_cycle;Signal;HPM_P1;HPM_P2
2022/07/05 00:00:42;;;;;;;;;;;;;;;;;;5056127;28;19909;-69
2022/07/05 00:03:08;;;;;;;;;;;;;;;;;;5056334;28;20040;-70
2022/07/05 00:05:34;;;;;;;;;;;;;;;;;;5038090;28;19909;-70
2022/07/05 00:08:00;;;;;;;;;;;;;;;;;;5056245;28;19962;-69
2022/07/05 00:10:26;;;;;;;;;;;;;;;;;;5055872;28;19909;-70
2022/07/05 00:12:52;;;;;;;;;;;;;;;;;;5055897;28;19920;-70
2022/07/05 00:15:18;;;;;;;;;;;;;;;;;;5055833;28;20370;-68
2022/07/05 00:17:44;;;;;;;;;;;;;;;;;;5056007;28;20364;-69
2022/07/05 00:20:10;;;;;;;;;;;;;;;;;;5056006;28;19908;-70
2022/07/05 00:22:36;;;;;;;;;;;;;;;;;;5055706;28;19909;-68
2022/07/05 00:25:02;;;;;;;;;;;;;;;;;;5055578;28;20009;-69
2022/07/05 00:27:27;;;;;;;;;;;;;;;;;;5055229;28;19921;-68
2022/07/05 00:29:53;;;;;;;;;;;;;;;;;;5056114;28;20308;-68
2022/07/05 00:32:19;;;;;;;;;;;;;;;;;;5055808;28;19916;-70
2022/07/05 00:34:45;;;;;;;;;;;;;;;;;;5055464;28;20284;-70
2022/07/05 00:37:12;;;;;;;;;;;;;;;;;;5055342;28;19956;-70
2022/07/05 00:39:38;;;;;;;;;;;;;;;;;;5055403;28;19916;-71
2022/07/05 00:42:04;;;;;;;;;;;;;;;;;;5055684;28;19909;-70
2022/07/05 00:44:31;;;;;;;;;;;;;;;;;;5055242;28;20427;-68
2022/07/05 00:46:57;;;;;;;;;;;;;;;;;;5055771;28;19912;-68
2022/07/05 00:49:23;;;;;;;;;;;;;;;;;;5055428;28;19909;-69
2022/07/05 00:51:49;;;;;;;;;;;;;;;;;;5055147;28;20380;-68
2022/07/05 00:54:14;;;;;;;;;;;;;;;;;;5055103;28;19916;-70
2022/07/05 00:56:40;;;;;;;;;;;;;;;;;;5054973;28;19935;-70
2022/07/05 00:59:06;;;;;;;;;;;;;;;;;;5054995;28;20025;-70
2022/07/05 01:01:32;;;;;;;;;;;;;;;;;;5054936;28;19909;-68
2022/07/05 01:03:58;;;;;;;;;;;;;;;;;;5055179;28;19909;-69
2022/07/05 01:06:24;;;;;;;;;;;;;;;;;;5054861;28;19908;-68
2022/07/05 01:08:50;;;;;;;;;;;;;;;;;;5054805;28;19955;-70
2022/07/05 01:11:16;;;;;;;;;;;;;;;;;;5054729;28;19908;-69
2022/07/05 01:13:42;;;;;;;;;;;;;;;;;;5054970;28;20004;-69
2022/07/05 01:16:08;;;;;;;;;;;;;;;;;;5054653;28;20326;-70
2022/07/05 01:18:34;;;;;;;;;;;;;;;;;;5054514;28;19912;-68
2022/07/05 01:21:00;;;;;;;;;;;;;;;;;;5054827;28;19938;-68
2022/07/05 01:23:26;;;;;;;;;;;;;;;;;;5054463;28;19909;-71
2022/07/05 01:25:53;;;;;;;;;;;;;;;;;;5054924;28;19920;-70
2022/07/05 01:28:19;;;;;;;;;;;;;;;;;;5054436;28;19966;-69
2022/07/05 01:30:45;;;;;;;;;;;;;;;;;;5054382;28;19909;-70
2022/07/05 01:33:11;;;;;;;;;;;;;;;;;;5054623;28;19944;-68
2022/07/05 01:35:36;;;;;;;;;;;;;;;;;;5054539;28;19909;-69
2022/07/05 01:38:02;;;;;;;;;;;;;;;;;;5054175;28;19920;-69
2022/07/05 01:40:29;;;;;;;;;;;;;;;;;;5053724;28;19909;-69
2022/07/05 01:42:55;;;;;;;;;;;;;;;;;;5054586;28;19909;-71
2022/07/05 01:45:39;;;;;;;;;;;;;;;;;;5054124;28;19928;-70
2022/07/05 01:48:05;;;;;;;;;;;;;;;;;;5054128;28;19916;-68
2022/07/05 01:50:31;;;;;;;;;;;;;;;;;;5036152;28;19913;-69
2022/07/05 01:52:57;;;;;;;;;;;;;;;;;;5054063;28;19909;-70
2022/07/05 01:55:23;;;;;;;;;;;;;;;;;;5054311;28;20000;-69
2022/07/05 01:57:49;;;;;;;;;;;;;;;;;;5053874;28;19938;-68
2022/07/05 02:00:15;;;;;;;;;;;;;;;;;;5053947;28;19909;-69
2022/07/05 02:02:41;;;;;;;;;;;;;;;;;;5053865;28;20373;-70
2022/07/05 02:05:06;;;;;;;;;;;;;;;;;;5053806;28;19909;-68
2022/07/05 02:07:32;;;;;;;;;;;;;;;;;;5054074;28;19971;-69
2022/07/05 02:09:58;;;;;;;;;;;;;;;;;;5054040;28;20004;-70
2022/07/05 02:12:24;;;;;;;;;;;;;;;;;;5053730;28;19909;-69
2022/07/05 02:14:50;;;;;;;;;;;;;;;;;;5054252;28;19913;-68
2022/07/05 02:17:16;;;;;;;;;;;;;;;;;;5053568;28;19942;-68
2022/07/05 02:19:42;;;;;;;;;;;;;;;;;;5053637;28;19955;-69
2022/07/05 02:22:08;;;;;;;;;;;;;;;;;;5053841;28;19909;-69
2022/07/05 02:24:33;;;;;;;;;;;;;;;;;;5053661;28;19908;-70
2022/07/05 02:26:59;;;;;;;;;;;;;;;;;;5053538;28;19920;-71
2022/07/05 02:29:25;;;;;;;;;;;;;;;;;;5054133;28;19976;-69
2022/07/05 02:31:51;;;;;;;;;;;;;;;;;;5053519;28;19952;-70
2022/07/05 02:34:17;;;;;;;;;;;;;;;;;;5053818;28;19909;-68
2022/07/05 02:36:43;;;;;;;;;;;;;;;;;;5053406;28;19909;-68
2022/07/05 02:39:09;;;;;;;;;;;;;;;;;;5053729;28;20043;-68
2022/07/05 02:41:35;;;;;;;;;;;;;;;;;;5053444;28;19909;-68
2022/07/05 02:44:01;;;;;;;;;;;;;;;;;;5053941;28;20321;-68
2022/07/05 02:46:26;;;;;;;;;;;;;;;;;;5053656;28;19916;-70
2022/07/05 02:48:52;;;;;;;;;;;;;;;;;;5053328;28;19909;-69
2022/07/05 02:51:18;;;;;;;;;;;;;;;;;;5054459;28;19912;-69
2022/07/05 02:53:44;;;;;;;;;;;;;;;;;;5057355;28;19916;-69
2022/07/05 02:56:10;;;;;;;;;;;;;;;;;;5057573;28;19913;-71
2022/07/05 02:58:36;;;;;;;;;;;;;;;;;;5057172;28;19920;-69
2022/07/05 03:01:02;;;;;;;;;;;;;;;;;;5057201;28;19913;-70
2022/07/05 03:03:28;;;;;;;;;;;;;;;;;;5057183;28;20381;-70
2022/07/05 03:05:54;;;;;;;;;;;;;;;;;;5039215;28;19957;-70
2022/07/05 03:08:19;;;;;;;;;;;;;;;;;;5057678;28;20265;-69
2022/07/05 03:10:45;;;;;;;;;;;;;;;;;;5057349;28;19909;-69
2022/07/05 03:13:11;;;;;;;;;;;;;;;;;;5057006;28;19913;-68
2022/07/05 03:23:24;;;;;;;;;;;;;;;;;;3992390;26;19932;-70
2022/07/05 03:31:11;;;;;;;;;;;;;;;;;;4862383;28;19924;-66
2022/07/05 03:33:37;;;;;;;;;;;;;;;;;;5058458;28;19904;-66
2022/07/05 03:36:02;;;;;;;;;;;;;;;;;;5076649;28;19909;-66
2022/07/05 03:38:28;;;;;;;;;;;;;;;;;;5076510;28;20368;-66
2022/07/05 03:40:54;;;;;;;;;;;;;;;;;;5076520;28;19916;-66
2022/07/05 03:43:20;;;;;;;;;;;;;;;;;;5077051;28;20371;-66
2022/07/05 03:45:46;;;;;;;;;;;;;;;;;;5076482;28;19931;-66
2022/07/05 03:48:12;;;;;;;;;;;;;;;;;;5076407;28;20367;-66
2022/07/05 03:50:38;;;;;;;;;;;;;;;;;;5076388;28;19908;-66
2022/07/05 03:53:04;;;;;;;;;;;;;;;;;;5076308;28;20382;-66
2022/07/05 03:55:30;;;;;;;;;;;;;;;;;;5076286;28;19998;-66
2022/07/05 03:57:55;;;;;;;;;;;;;;;;;;5076703;28;20310;-66
2022/07/05 04:00:21;;;;;;;;;;;;;;;;;;5076483;28;19912;-66
2022/07/05 04:02:47;;;;;;;;;;;;;;;;;;5075606;28;20280;-66
2022/07/05 04:05:13;;;;;;;;;;;;;;;;;;5076378;28;19955;-66
2022/07/05 04:07:39;;;;;;;;;;;;;;;;;;5076056;28;19908;-66
2022/07/05 04:10:05;;;;;;;;;;;;;;;;;;5076022;28;19909;-66
2022/07/05 04:12:31;;;;;;;;;;;;;;;;;;5076232;28;19915;-66
2022/07/05 04:14:57;;;;;;;;;;;;;;;;;;5076166;28;19908;-67
2022/07/05 04:17:23;;;;;;;;;;;;;;;;;;5076411;28;19955;-67
2022/07/05 04:19:49;;;;;;;;;;;;;;;;;;5075851;28;20377;-66
2022/07/05 04:22:15;;;;;;;;;;;;;;;;;;5075785;28;19909;-66
2022/07/05 04:27:25;;;;;;;;;;;;;;;;;;5075770;28;20466;-66
2022/07/05 04:29:51;;;;;;;;;;;;;;;;;;5075460;28;19963;-66
2022/07/05 04:32:17;;;;;;;;;;;;;;;;;;5076463;28;19909;-66
2022/07/05 04:34:43;;;;;;;;;;;;;;;;;;5075525;28;19915;-66
2022/07/05 04:37:09;;;;;;;;;;;;;;;;;;5075750;28;19921;-66
2022/07/05 04:39:35;;;;;;;;;;;;;;;;;;5075719;28;20356;-66
2022/07/05 04:42:01;;;;;;;;;;;;;;;;;;5075955;28;19916;-66
2022/07/05 04:44:26;;;;;;;;;;;;;;;;;;5075301;28;20366;-66
2022/07/05 04:46:52;;;;;;;;;;;;;;;;;;5075262;28;19914;-66
2022/07/05 04:49:18;;;;;;;;;;;;;;;;;;5075209;28;19913;-66
2022/07/05 04:51:44;;;;;;;;;;;;;;;;;;5075733;28;19908;-66
2022/07/05 04:54:10;;;;;;;;;;;;;;;;;;5057153;28;19934;-67
2022/07/05 04:56:36;;;;;;;;;;;;;;;;;;5075128;28;19908;-67
2022/07/05 04:59:02;;;;;;;;;;;;;;;;;;5075275;28;19917;-66
2022/07/05 05:01:28;;;;;;;;;;;;;;;;;;5074993;28;20058;-66
2022/07/05 05:03:54;;;;;;;;;;;;;;;;;;5075499;28;19908;-66
2022/07/05 05:06:19;;;;;;;;;;;;;;;;;;5074867;28;19908;-66
2022/07/05 05:08:45;;;;;;;;;;;;;;;;;;5074853;28;19909;-66
2022/07/05 05:11:11;;;;;;;;;;;;;;;;;;5075059;28;19920;-66
2022/07/05 05:13:37;;;;;;;;;;;;;;;;;;5074256;28;20375;-66
2022/07/05 05:16:03;;;;;;;;;;;;;;;;;;5074587;28;19952;-66
2022/07/05 05:18:29;;;;;;;;;;;;;;;;;;5074539;28;19934;-66
2022/07/05 05:20:55;;;;;;;;;;;;;;;;;;5074645;28;19912;-67
2022/07/05 05:23:21;;;;;;;;;;;;;;;;;;5074865;28;19916;-66
2022/07/05 05:25:46;;;;;;;;;;;;;;;;;;5074532;28;19909;-66
2022/07/05 05:28:12;;;;;;;;;;;;;;;;;;5074531;28;19909;-66
2022/07/05 05:30:38;;;;;;;;;;;;;;;;;;5074769;28;20330;-66
2022/07/05 05:33:04;;;;;;;;;;;;;;;;;;5074416;28;20003;-66
2022/07/05 05:35:30;;;;;;;;;;;;;;;;;;5074630;28;19909;-66
2022/07/05 05:37:56;;;;;;;;;;;;;;;;;;5074231;28;19955;-66
2022/07/05 05:40:22;;;;;;;;;;;;;;;;;;5074290;28;20379;-66
2022/07/05 05:42:48;;;;;;;;;;;;;;;;;;5074506;28;19909;-67
2022/07/05 05:45:14;;;;;;;;;;;;;;;;;;5074190;28;20011;-66
2022/07/05 05:47:40;;;;;;;;;;;;;;;;;;5074719;28;20399;-66
2022/07/05 05:50:06;;;;;;;;;;;;;;;;;;5074082;28;20363;-66
2022/07/05 05:52:32;;;;;;;;;;;;;;;;;;5074367;28;19919;-66
2022/07/05 05:54:57;;;;;;;;;;;;;;;;;;5074066;28;20400;-67
2022/07/05 05:57:23;;;;;;;;;;;;;;;;;;5073949;28;19958;-67
2022/07/05 05:59:49;;;;;;;;;;;;;;;;;;5074226;28;19931;-66
2022/07/05 06:02:15;;;;;;;;;;;;;;;;;;5073909;28;19909;-66
2022/07/05 06:04:41;;;;;;;;;;;;;;;;;;5074486;28;19908;-67
2022/07/05 06:07:07;;;;;;;;;;;;;;;;;;5073877;28;19916;-66
2022/07/05 06:09:33;;;;;;;;;;;;;;;;;;5074112;28;19999;-66
2022/07/05 06:11:59;;;;;;;;;;;;;;;;;;5073850;28;20271;-66
2022/07/05 06:14:25;;;;;;;;;;;;;;;;;;5073827;28;19909;-66
2022/07/05 06:16:50;;;;;;;;;;;;;;;;;;5073734;28;19977;-66
2022/07/05 06:19:16;;;;;;;;;;;;;;;;;;5073770;28;19908;-66
2022/07/05 06:21:42;;;;;;;;;;;;;;;;;;5074014;28;20003;-66
2022/07/05 06:24:08;;;;;;;;;;;;;;;;;;5073690;28;19958;-66
2022/07/05 06:26:34;;;;;;;;;;;;;;;;;;5074051;28;20292;-66
2022/07/05 06:29:02;;;;;;;;;;;;;;;;;;5073076;28;20207;-66
2022/07/05 06:31:28;;;;;;;;;;;;;;;;;;5074027;28;19981;-66
2022/07/05 06:33:54;;;;;;;;;;;;;;;;;;5073586;28;19915;-67
2022/07/05 06:36:20;;;;;;;;;;;;;;;;;;5073569;28;19909;-66
2022/07/05 06:38:45;;;;;;;;;;;;;;;;;;5073497;28;19917;-66
2022/07/05 06:41:11;;;;;;;;;;;;;;;;;;5074057;28;20295;-66
2022/07/05 06:43:38;;;;;;;;;;;;;;;;;;5073536;28;19909;-67
2022/07/05 06:46:04;;;;;;;;;;;;;;;;;;5073838;28;20291;-67
2022/07/05 06:48:30;;;;;;;;;;;;;;;;;;5073723;28;19915;-67
2022/07/05 06:50:56;;;;;;;;;;;;;;;;;;5055502;28;19908;-66
2022/07/05 06:53:22;;;;;;;;;;;;;;;;;;5055362;28;19913;-66
2022/07/05 06:55:48;;;;;;;;;;;;;;;;;;5073659;28;19909;-66
2022/07/05 06:58:14;;;;;;;;;;;;;;;;;;5073597;28;20271;-67
2022/07/05 07:00:40;;;;;;;;;;;;;;;;;;5073300;28;19991;-66
2022/07/05 07:03:06;;;;;;;;;;;;;;;;;;5073904;28;20309;-67
2022/07/05 07:05:32;;;;;;;;;;;;;;;;;;5073318;28;19916;-67
2022/07/05 07:10:42;;;;;;;;;;;;;;;;;;5073305;28;19919;-67
2022/07/05 07:13:08;;;;;;;;;;;;;;;;;;5073221;28;19909;-66
2022/07/05 07:15:34;;;;;;;;;;;;;;;;;;5073212;28;19913;-67
2022/07/05 07:18:00;;;;;;;;;;;;;;;;;;5073120;28;20354;-67
2022/07/05 07:20:26;;;;;;;;;;;;;;;;;;5073456;28;19931;-66
2022/07/05 07:22:52;;;;;;;;;;;;;;;;;;5055156;28;20367;-66
2022/07/05 07:25:20;;;;;;;;;;;;;;;;;;5073674;28;20351;-66
2022/07/05 07:27:46;;;;;;;;;;;;;;;;;;5073012;28;20017;-67
2022/07/05 07:30:11;;;;;;;;;;;;;;;;;;5073035;28;19920;-66
2022/07/05 07:32:37;;;;;;;;;;;;;;;;;;5073589;28;20015;-66
2022/07/05 07:35:03;;;;;;;;;;;;;;;;;;5073064;28;20049;-66
2022/07/05 07:37:29;;;;;;;;;;;;;;;;;;5073721;28;19924;-67
2022/07/05 07:39:55;;;;;;;;;;;;;;;;;;5076859;28;19908;-66
2022/07/05 07:42:21;;;;;;;;;;;;;;;;;;5076552;28;20283;-66
2022/07/05 07:44:47;;;;;;;;;;;;;;;;;;5076475;28;19995;-66
2022/07/05 07:47:13;;;;;;;;;;;;;;;;;;5058476;28;19915;-66
2022/07/05 07:49:40;;;;;;;;;;;;;;;;;;5076423;28;19909;-66
2022/07/05 07:52:06;;;;;;;;;;;;;;;;;;5076895;28;19915;-66
2022/07/05 07:54:31;;;;;;;;;;;;;;;;;;5076570;28;19912;-67
2022/07/05 07:56:59;;;;;;;;;;;;;;;;;;5076202;28;19958;-67
2022/07/05 07:59:25;;;;;;;;;;;;;;;;;;5076269;28;19912;-67
2022/07/05 08:01:51;;;;;;;;;;;;;;;;;;5076192;28;20316;-67
2022/07/05 08:04:17;;;;;;;;;;;;;;;;;;5076657;28;20356;-67
2022/07/05 08:06:43;;;;;;;;;;;;;;;;;;5076080;28;20009;-67
2022/07/05 08:09:08;;;;;;;;;;;;;;;;;;5076341;28;19926;-67
2022/07/05 08:11:34;;;;;;;;;;;;;;;;;;5076047;28;19908;-67
2022/07/05 08:14:00;;;;;;;;;;;;;;;;;;5076294;28;19958;-66
2022/07/05 08:16:26;;;;;;;;;;;;;;;;;;5075910;28;19909;-67
2022/07/05 08:21:39;;;;;;;;;;;;;;;;;;5075935;28;19916;-66
2022/07/05 08:24:05;;;;;;;;;;;;;;;;;;5075729;28;19908;-66
2022/07/05 08:26:31;;;;;;;;;;;;;;;;;;5075973;28;19919;-67
2022/07/05 08:29:01;;;;;;;;;;;;;;;;;;5075620;28;20002;-66
2022/07/05 08:31:27;;;;;;;;;;;;;;;;;;5075738;28;19954;-67
2022/07/05 08:33:53;;;;;;;;;;;;;;;;;;5057575;28;19908;-67
2022/07/05 08:36:18;;;;;;;;;;;;;;;;;;5075570;28;19920;-67
2022/07/05 08:38:44;;;;;;;;;;;;;;;;;;5075431;28;20356;-66
2022/07/05 08:41:10;;;;;;;;;;;;;;;;;;5075454;28;19908;-67
2022/07/05 08:43:36;;;;;;;;;;;;;;;;;;5075407;28;20387;-67
2022/07/05 08:46:03;;;;;;;;;;;;;;;;;;5075359;28;19954;-66
2022/07/05 08:48:29;;;;;;;;;;;;;;;;;;5075819;28;20249;-66
2022/07/05 08:50:55;;;;;;;;;;;;;;;;;;5057241;28;19912;-67
2022/07/05 08:53:21;;;;;;;;;;;;;;;;;;5075471;28;19940;-67
2022/07/05 08:55:47;;;;;;;;;;;;;;;;;;5075090;28;19956;-66
2022/07/05 08:58:13;;;;;;;;;;;;;;;;;;5075585;28;19913;-66
2022/07/05 09:00:39;;;;;;;;;;;;;;;;;;5075054;28;19909;-66
2022/07/05 09:03:04;;;;;;;;;;;;;;;;;;5057021;28;20018;-67
2022/07/05 09:05:30;;;;;;;;;;;;;;;;;;5075251;28;19955;-67
2022/07/05 09:07:56;;;;;;;;;;;;;;;;;;5074904;28;19909;-67
2022/07/05 09:10:22;;;;;;;;;;;;;;;;;;5075419;28;19920;-67
2022/07/05 09:12:49;;;;;;;;;;;;;;;;;;5074843;28;20011;-67
2022/07/05 09:15:15;;;;;;;;;;;;;;;;;;5057136;28;19909;-67
2022/07/05 09:17:41;;;;;;;;;;;;;;;;;;5074898;28;19920;-67
2022/07/05 09:20:07;;;;;;;;;;;;;;;;;;5075214;28;19912;-67
2022/07/05 09:22:33;;;;;;;;;;;;;;;;;;5074640;28;20447;-67
2022/07/05 09:24:59;;;;;;;;;;;;;;;;;;5074864;28;19909;-67
2022/07/05 09:27:24;;;;;;;;;;;;;;;;;;5056520;28;20007;-67
2022/07/05 09:29:50;;;;;;;;;;;;;;;;;;5074262;28;20382;-67
2022/07/05 09:32:16;;;;;;;;;;;;;;;;;;5075268;28;19909;-67
2022/07/05 09:34:42;;;;;;;;;;;;;;;;;;5074683;28;20264;-67
2022/07/05 09:37:08;;;;;;;;;;;;;;;;;;5074834;28;19915;-67
2022/07/05 09:39:37;;;;;;;;;;;;;;;;;;5074255;28;19990;-67
2022/07/05 09:42:03;;;;;;;;;;;;;;;;;;5074832;28;20287;-67
2022/07/05 09:44:28;;;;;;;;;;;;;;;;;;5074181;28;19909;-67
2022/07/05 09:46:54;;;;;;;;;;;;;;;;;;5074174;28;19908;-66
2022/07/05 09:49:20;;;;;;;;;;;;;;;;;;5074678;28;20363;-67
2022/07/05 09:51:46;;;;;;;;;;;;;;;;;;5074374;28;19909;-66
2022/07/05 09:54:12;;;;;;;;;;;;;;;;;;5074068;28;20311;-66
2022/07/05 09:56:38;;;;;;;;;;;;;;;;;;5074022;28;19993;-67
2022/07/05 09:59:04;;;;;;;;;;;;;;;;;;5073947;28;19934;-67
2022/07/05 10:01:30;;;;;;;;;;;;;;;;;;5073556;28;19908;-67
2022/07/05 10:03:56;;;;;;;;;;;;;;;;;;5074203;28;19916;-67
2022/07/05 10:06:22;;;;;;;;;;;;;;;;;;5073904;28;19920;-66
2022/07/05 10:08:47;;;;;;;;;;;;;;;;;;5073864;28;19908;-67
2022/07/05 10:11:13;;;;;;;;;;;;;;;;;;5073823;28;19928;-67
2022/07/05 10:13:39;;;;;;;;;;;;;;;;;;5074367;28;20272;-67
2022/07/05 10:16:05;;;;;;;;;;;;;;;;;;5074067;28;19909;-67
2022/07/05 10:18:32;;;;;;;;;;;;;;;;;;5073730;28;19920;-67
2022/07/05 10:20:58;;;;;;;;;;;;;;;;;;5073729;28;19948;-67
2022/07/05 10:23:24;;;;;;;;;;;;;;;;;;5073982;28;19915;-67
2022/07/05 10:25:51;;;;;;;;;;;;;;;;;;5073695;28;20427;-66
2022/07/05 10:28:17;;;;;;;;;;;;;;;;;;5073585;28;20006;-66
2022/07/05 10:30:45;;;;;;;;;;;;;;;;;;5073506;28;20077;-66
2022/07/05 10:33:14;;;;;;;;;;;;;;;;;;5074124;28;19931;-67
2022/07/05 10:35:40;;;;;;;;;;;;;;;;;;5073577;28;19944;-67
2022/07/05 10:38:05;;;;;;;;;;;;;;;;;;5073506;28;19951;-66
2022/07/05 10:40:31;;;;;;;;;;;;;;;;;;5073572;28;20378;-66
2022/07/05 10:42:57;;;;;;;;;;;;;;;;;;5073515;28;19914;-67
2022/07/05 10:45:23;;;;;;;;;;;;;;;;;;5073556;28;20363;-67
2022/07/05 10:47:49;;;;;;;;;;;;;;;;;;5074028;28;20341;-67
2022/07/05 10:50:15;;;;;;;;;;;;;;;;;;5073745;28;19908;-67
2022/07/05 10:52:41;;;;;;;;;;;;;;;;;;5074058;28;19908;-66
2022/07/05 10:55:08;;;;;;;;;;;;;;;;;;5073386;28;19909;-67
2022/07/05 10:57:34;;;;;;;;;;;;;;;;;;5073341;28;19938;-66
2022/07/05 11:00:00;;;;;;;;;;;;;;;;;;5073618;28;20006;-66
2022/07/05 11:02:25;;;;;;;;;;;;;;;;;;5073313;28;19908;-66
2022/07/05 11:04:51;;;;;;;;;;;;;;;;;;5073888;28;19915;-67
2022/07/05 11:07:17;;;;;;;;;;;;;;;;;;5073304;28;19908;-67
2022/07/05 11:09:43;;;;;;;;;;;;;;;;;;5073848;28;19908;-66
2022/07/05 11:12:09;;;;;;;;;;;;;;;;;;5073785;28;19959;-66
2022/07/05 11:14:37;;;;;;;;;;;;;;;;;;5077080;28;20360;-66
2022/07/05 11:17:03;;;;;;;;;;;;;;;;;;5059035;28;19956;-66
2022/07/05 11:19:28;;;;;;;;;;;;;;;;;;5077018;28;19951;-66
2022/07/05 11:21:54;;;;;;;;;;;;;;;;;;5077508;28;20364;-66
2022/07/05 11:24:20;;;;;;;;;;;;;;;;;;5076908;28;19908;-67
2022/07/05 11:26:46;;;;;;;;;;;;;;;;;;5077418;28;20322;-66
2022/07/05 11:29:12;;;;;;;;;;;;;;;;;;5076832;28;19912;-67
2022/07/05 11:31:38;;;;;;;;;;;;;;;;;;5077628;28;19909;-66
2022/07/05 11:34:04;;;;;;;;;;;;;;;;;;5076702;28;20003;-67
2022/07/05 11:36:31;;;;;;;;;;;;;;;;;;5076693;28;19978;-66
2022/07/05 11:38:56;;;;;;;;;;;;;;;;;;5076581;28;19917;-66
2022/07/05 11:41:22;;;;;;;;;;;;;;;;;;5076566;28;20046;-66
2022/07/05 11:43:48;;;;;;;;;;;;;;;;;;5076810;28;19909;-66
2022/07/05 11:46:14;;;;;;;;;;;;;;;;;;5076780;28;19916;-66
2022/07/05 11:48:40;;;;;;;;;;;;;;;;;;5077005;28;19908;-67
2022/07/05 11:51:06;;;;;;;;;;;;;;;;;;5076410;28;19915;-67
2022/07/05 11:53:32;;;;;;;;;;;;;;;;;;5076629;28;19964;-66
2022/07/05 11:55:58;;;;;;;;;;;;;;;;;;5076286;28;19908;-66
2022/07/05 11:58:24;;;;;;;;;;;;;;;;;;5076200;28;19952;-67
2022/07/05 12:00:49;;;;;;;;;;;;;;;;;;5076251;28;19955;-67
2022/07/05 12:03:17;;;;;;;;;;;;;;;;;;5076473;28;20302;-67
2022/07/05 12:05:42;;;;;;;;;;;;;;;;;;5076157;28;20383;-67
2022/07/05 12:08:09;;;;;;;;;;;;;;;;;;5076117;28;19908;-66
2022/07/05 12:13:20;;;;;;;;;;;;;;;;;;5075797;28;20391;-66
2022/07/05 12:15:46;;;;;;;;;;;;;;;;;;5076259;28;19909;-66
2022/07/05 12:18:12;;;;;;;;;;;;;;;;;;5075821;28;20373;-67
2022/07/05 12:20:38;;;;;;;;;;;;;;;;;;5076421;28;19908;-67
2022/07/05 12:23:04;;;;;;;;;;;;;;;;;;5075411;28;19915;-66
2022/07/05 12:25:30;;;;;;;;;;;;;;;;;;5075799;28;19915;-66
2022/07/05 12:27:56;;;;;;;;;;;;;;;;;;5076263;28;20003;-67
2022/07/05 12:30:21;;;;;;;;;;;;;;;;;;5075524;28;20364;-67
2022/07/05 12:32:47;;;;;;;;;;;;;;;;;;5076162;28;20279;-66
2022/07/05 12:35:13;;;;;;;;;;;;;;;;;;5075886;28;19908;-66
2022/07/05 12:37:39;;;;;;;;;;;;;;;;;;5075478;28;19932;-67
2022/07/05 12:40:05;;;;;;;;;;;;;;;;;;5075828;28;19991;-66
2022/07/05 12:42:34;;;;;;;;;;;;;;;;;;5075450;28;20352;-67
2022/07/05 12:45:00;;;;;;;;;;;;;;;;;;5076004;28;19955;-66
2022/07/05 12:47:26;;;;;;;;;;;;;;;;;;5075374;28;19909;-66
2022/07/05 12:49:52;;;;;;;;;;;;;;;;;;5075571;28;19947;-66
2022/07/05 12:52:18;;;;;;;;;;;;;;;;;;5075546;28;19916;-66
2022/07/05 13:00:13;;;;;;;;;;;;;;;;;;5075453;28;20352;-66
2022/07/05 13:02:39;;;;;;;;;;;;;;;;;;5075039;28;20006;-67
2022/07/05 13:05:05;;;;;;;;;;;;;;;;;;5075221;28;19908;-67
2022/07/05 13:07:30;;;;;;;;;;;;;;;;;;5074965;28;20296;-66
2022/07/05 13:09:56;;;;;;;;;;;;;;;;;;5074903;28;19908;-67
2022/07/05 13:12:23;;;;;;;;;;;;;;;;;;5075090;28;19912;-67
2022/07/05 13:14:49;;;;;;;;;;;;;;;;;;5074786;28;19916;-67
2022/07/05 13:17:15;;;;;;;;;;;;;;;;;;5074949;28;19942;-66
2022/07/05 13:19:41;;;;;;;;;;;;;;;;;;5074694;28;19934;-66
2022/07/05 13:22:06;;;;;;;;;;;;;;;;;;5074933;28;19909;-67
2022/07/05 13:24:32;;;;;;;;;;;;;;;;;;5074557;28;19912;-66
2022/07/05 13:26:58;;;;;;;;;;;;;;;;;;5074728;28;19908;-66
2022/07/05 13:29:24;;;;;;;;;;;;;;;;;;5074294;28;19966;-67
2022/07/05 13:31:50;;;;;;;;;;;;;;;;;;5075553;28;19908;-67
2022/07/05 13:34:16;;;;;;;;;;;;;;;;;;5074441;28;19915;-67
2022/07/05 13:36:42;;;;;;;;;;;;;;;;;;5073991;28;19913;-66
2022/07/05 13:39:08;;;;;;;;;;;;;;;;;;5074248;28;19923;-66
2022/07/05 13:41:34;;;;;;;;;;;;;;;;;;5074862;28;19908;-66
2022/07/05 13:44:00;;;;;;;;;;;;;;;;;;5074242;28;19916;-67
2022/07/05 13:46:26;;;;;;;;;;;;;;;;;;5074221;28;19908;-66
2022/07/05 13:48:51;;;;;;;;;;;;;;;;;;5074441;28;19914;-67
2022/07/05 13:51:17;;;;;;;;;;;;;;;;;;5074393;28;19915;-66
2022/07/05 13:53:43;;;;;;;;;;;;;;;;;;5074131;28;19909;-66
2022/07/05 13:56:09;;;;;;;;;;;;;;;;;;5074032;28;20000;-66
2022/07/05 13:58:35;;;;;;;;;;;;;;;;;;5073897;28;20017;-66
2022/07/05 14:01:02;;;;;;;;;;;;;;;;;;5056055;28;19962;-66
2022/07/05 14:03:29;;;;;;;;;;;;;;;;;;5074199;28;20275;-66
2022/07/05 14:05:55;;;;;;;;;;;;;;;;;;5074301;28;19909;-67
2022/07/05 14:08:24;;;;;;;;;;;;;;;;;;5074138;28;20019;-66
2022/07/05 14:10:52;;;;;;;;;;;;;;;;;;5073822;28;20003;-66
2022/07/05 14:13:18;;;;;;;;;;;;;;;;;;5074390;28;19912;-67
2022/07/05 14:15:45;;;;;;;;;;;;;;;;;;5073763;28;19908;-66
2022/07/05 14:18:11;;;;;;;;;;;;;;;;;;5073744;28;19912;-66
2022/07/05 14:20:37;;;;;;;;;;;;;;;;;;5073997;28;19916;-66
2022/07/05 14:23:03;;;;;;;;;;;;;;;;;;5073744;28;20326;-67
2022/07/05 14:25:29;;;;;;;;;;;;;;;;;;5073705;28;19908;-66
2022/07/05 14:27:55;;;;;;;;;;;;;;;;;;5073761;28;19908;-67
2022/07/05 14:30:23;;;;;;;;;;;;;;;;;;5073464;28;19916;-66
2022/07/05 14:32:49;;;;;;;;;;;;;;;;;;5074174;28;19913;-66
2022/07/05 14:35:15;;;;;;;;;;;;;;;;;;5073845;28;20000;-67
2022/07/05 14:37:40;;;;;;;;;;;;;;;;;;5073494;28;19916;-67
2022/07/05 14:40:07;;;;;;;;;;;;;;;;;;5074162;28;19908;-67
2022/07/05 14:42:33;;;;;;;;;;;;;;;;;;5073523;28;19908;-66
2022/07/05 14:44:59;;;;;;;;;;;;;;;;;;5073820;28;20272;-67
2022/07/05 14:47:26;;;;;;;;;;;;;;;;;;5075967;28;19909;-66
2022/07/05 14:49:52;;;;;;;;;;;;;;;;;;5077579;28;19962;-67
2022/07/05 14:52:18;;;;;;;;;;;;;;;;;;5077566;28;19913;-67
2022/07/05 14:54:44;;;;;;;;;;;;;;;;;;5077755;28;20310;-67
2022/07/05 14:57:10;;;;;;;;;;;;;;;;;;5077371;28;19999;-67
2022/07/05 14:59:36;;;;;;;;;;;;;;;;;;5077699;28;19915;-66
2022/07/05 15:02:02;;;;;;;;;;;;;;;;;;5077320;28;19995;-67
2022/07/05 15:04:28;;;;;;;;;;;;;;;;;;5077879;28;19912;-66
2022/07/05 15:06:54;;;;;;;;;;;;;;;;;;5077271;28;19969;-67
2022/07/05 15:09:21;;;;;;;;;;;;;;;;;;5077470;28;19916;-66
2022/07/05 15:11:47;;;;;;;;;;;;;;;;;;5077136;28;19918;-67
2022/07/05 15:14:13;;;;;;;;;;;;;;;;;;5077083;28;20121;-66
2022/07/05 15:16:39;;;;;;;;;;;;;;;;;;5077634;28;19909;-66
2022/07/05 15:19:05;;;;;;;;;;;;;;;;;;5076930;28;19912;-66
2022/07/05 15:21:31;;;;;;;;;;;;;;;;;;5076968;28;20292;-67
2022/07/05 15:23:58;;;;;;;;;;;;;;;;;;5077467;28;19916;-67
2022/07/05 15:26:24;;;;;;;;;;;;;;;;;;5077139;28;19908;-66
2022/07/05 15:28:50;;;;;;;;;;;;;;;;;;5076648;28;20372;-67
2022/07/05 15:31:16;;;;;;;;;;;;;;;;;;5076362;28;19966;-67
2022/07/05 15:33:41;;;;;;;;;;;;;;;;;;5077517;28;19916;-66
2022/07/05 15:36:07;;;;;;;;;;;;;;;;;;5076679;28;19909;-66
2022/07/05 15:38:33;;;;;;;;;;;;;;;;;;5076593;28;20327;-66
2022/07/05 15:40:59;;;;;;;;;;;;;;;;;;5076921;28;19912;-67
2022/07/05 15:43:28;;;;;;;;;;;;;;;;;;5076530;28;19908;-67
2022/07/05 15:45:53;;;;;;;;;;;;;;;;;;5076764;28;19915;-67
2022/07/05 15:48:19;;;;;;;;;;;;;;;;;;5076502;28;19909;-67
2022/07/05 15:50:45;;;;;;;;;;;;;;;;;;5077003;28;19908;-66
2022/07/05 15:53:11;;;;;;;;;;;;;;;;;;5076381;28;19954;-67
2022/07/05 15:55:37;;;;;;;;;;;;;;;;;;5076587;28;20319;-72
2022/07/05 15:58:03;;;;;;;;;;;;;;;;;;5075723;28;20397;-72
2022/07/05 16:00:29;;;;;;;;;;;;;;;;;;5076529;28;19909;-71
2022/07/05 16:02:55;;;;;;;;;;;;;;;;;;5076232;28;19927;-76
2022/07/05 16:05:21;;;;;;;;;;;;;;;;;;5076438;28;19909;-66
2022/07/05 16:07:46;;;;;;;;;;;;;;;;;;5076407;28;19916;-66
2022/07/05 16:10:12;;;;;;;;;;;;;;;;;;5076686;28;19956;-67
2022/07/05 16:12:38;;;;;;;;;;;;;;;;;;5058043;28;19931;-66
2022/07/05 16:15:04;;;;;;;;;;;;;;;;;;5076025;28;20003;-66
2022/07/05 16:17:30;;;;;;;;;;;;;;;;;;5076184;28;20368;-66
2022/07/05 16:19:56;;;;;;;;;;;;;;;;;;5076194;28;19916;-66
2022/07/05 16:22:22;;;;;;;;;;;;;;;;;;5076440;28;19913;-66
2022/07/05 16:24:48;;;;;;;;;;;;;;;;;;5075803;28;19908;-66
2022/07/05 16:27:14;;;;;;;;;;;;;;;;;;5075714;28;19915;-66
2022/07/05 16:29:40;;;;;;;;;;;;;;;;;;5075765;28;19976;-66
2022/07/05 16:32:05;;;;;;;;;;;;;;;;;;5076251;28;19908;-66
2022/07/05 16:34:31;;;;;;;;;;;;;;;;;;5076492;28;19908;-66
2022/07/05 16:36:57;;;;;;;;;;;;;;;;;;5075637;28;20279;-66
2022/07/05 16:39:23;;;;;;;;;;;;;;;;;;5057586;28;20398;-66
2022/07/05 16:41:49;;;;;;;;;;;;;;;;;;5075525;28;19908;-66
2022/07/05 16:44:15;;;;;;;;;;;;;;;;;;5075747;28;19908;-66
2022/07/05 16:46:41;;;;;;;;;;;;;;;;;;5075683;28;20378;-66
2022/07/05 16:49:07;;;;;;;;;;;;;;;;;;5075952;28;19954;-66
2022/07/05 16:51:33;;;;;;;;;;;;;;;;;;5075590;28;19908;-66
2022/07/05 16:53:59;;;;;;;;;;;;;;;;;;5075245;28;20348;-66
2022/07/05 16:56:25;;;;;;;;;;;;;;;;;;5075253;28;19915;-66
2022/07/05 16:58:51;;;;;;;;;;;;;;;;;;5075111;28;19912;-66
2022/07/05 17:01:17;;;;;;;;;;;;;;;;;;5075662;28;20284;-66
2022/07/05 17:03:42;;;;;;;;;;;;;;;;;;5075037;28;19912;-66
2022/07/05 17:06:12;;;;;;;;;;;;;;;;;;5074999;28;19916;-65